Time;durP1;ratioP1;P1;durP2;ratioP2;P2;SDS_P1;SDS_P2;PMS_P1;PMS_P2;Temp;Humidity;BMP_temperature;BMP_pressure;BME280_temperature;BME280_humidity;BME280_pressure;Samples;Min_cycle;Max_cycle;Signal;HPM_P1;HPM_P2
2023/03/19 00:01:33;;;;;;;14.02;12.90;;;;;;;;;;4191577;28;20051;-60
2023/03/19 00:03:54;;;;;;;15.05;13.60;;;;;;;;;;4191403;28;20040;-60
2023/03/19 00:06:14;;;;;;;13.07;11.77;;;;;;;;;;4191630;28;20103;-60
2023/03/19 00:08:34;;;;;;;12.82;11.93;;;;;;;;;;4190900;28;20075;-60
2023/03/19 00:10:54;;;;;;;13.05;11.93;;;;;;;;;;4193272;28;20130;-60
2023/03/19 00:13:14;;;;;;;13.57;12.02;;;;;;;;;;4193186;28;20079;-60
2023/03/19 00:15:35;;;;;;;11.88;11.10;;;;;;;;;;4192094;28;20059;-60
2023/03/19 00:17:56;;;;;;;20.70;15.95;;;;;;;;;;4191307;28;20044;-60
2023/03/19 00:20:17;;;;;;;24.88;20.42;;;;;;;;;;4193266;28;20055;-60
2023/03/19 00:22:36;;;;;;;21.50;19.15;;;;;;;;;;4192278;28;20091;-60
2023/03/19 00:24:56;;;;;;;10.32;9.45;;;;;;;;;;4191032;28;20109;-60
2023/03/19 00:27:16;;;;;;;8.18;7.68;;;;;;;;;;4190861;28;20055;-60
2023/03/19 00:29:37;;;;;;;8.43;7.93;;;;;;;;;;4193319;28;20082;-60
2023/03/19 00:31:57;;;;;;;8.00;7.40;;;;;;;;;;4190651;28;20320;-60
2023/03/19 00:34:17;;;;;;;8.07;7.68;;;;;;;;;;4190076;28;20090;-60
2023/03/19 00:36:37;;;;;;;8.15;7.85;;;;;;;;;;4190469;28;20236;-60
2023/03/19 00:38:58;;;;;;;6.78;6.22;;;;;;;;;;4190071;28;20040;-60
2023/03/19 00:41:19;;;;;;;8.50;8.00;;;;;;;;;;4193193;28;20052;-60
2023/03/19 00:43:40;;;;;;;8.05;7.55;;;;;;;;;;4190575;28;20080;-60
2023/03/19 00:46:01;;;;;;;7.55;7.25;;;;;;;;;;4189997;28;20048;-60
2023/03/19 00:48:22;;;;;;;7.45;7.15;;;;;;;;;;4192852;28;20355;-60
2023/03/19 00:50:42;;;;;;;11.40;10.65;;;;;;;;;;4189811;28;20112;-60
2023/03/19 00:53:02;;;;;;;8.85;8.40;;;;;;;;;;4190856;28;20086;-60
2023/03/19 00:55:24;;;;;;;11.57;10.77;;;;;;;;;;4191594;28;20056;-61
2023/03/19 00:57:44;;;;;;;12.95;11.75;;;;;;;;;;4194260;28;20366;-60
2023/03/19 01:00:05;;;;;;;12.52;11.75;;;;;;;;;;4190126;28;20075;-60
2023/03/19 01:02:25;;;;;;;13.75;12.52;;;;;;;;;;4190027;28;20369;-60
2023/03/19 01:04:48;;;;;;;13.77;12.43;;;;;;;;;;4191474;28;20239;-60
2023/03/19 01:07:08;;;;;;;13.65;12.30;;;;;;;;;;4190431;28;20089;-60
2023/03/19 01:09:28;;;;;;;12.90;11.82;;;;;;;;;;4188937;28;20044;-60
2023/03/19 01:11:48;;;;;;;11.13;10.43;;;;;;;;;;4189837;28;20048;-60
2023/03/19 01:14:08;;;;;;;12.35;11.35;;;;;;;;;;4189480;28;20052;-60
2023/03/19 01:16:29;;;;;;;11.38;10.45;;;;;;;;;;4189672;28;20099;-60
2023/03/19 01:18:49;;;;;;;12.15;10.93;;;;;;;;;;4189726;28;20035;-60
2023/03/19 01:21:10;;;;;;;11.85;10.90;;;;;;;;;;4189371;28;20087;-60
2023/03/19 01:23:30;;;;;;;12.80;11.75;;;;;;;;;;4189690;28;20044;-60
2023/03/19 01:25:51;;;;;;;12.07;11.30;;;;;;;;;;4188794;28;20281;-60
2023/03/19 01:28:11;;;;;;;12.73;11.82;;;;;;;;;;4190934;28;20135;-60
2023/03/19 01:30:31;;;;;;;11.90;10.90;;;;;;;;;;4189286;28;20477;-60
2023/03/19 01:32:52;;;;;;;11.30;10.38;;;;;;;;;;4190810;28;20043;-60
2023/03/19 01:35:12;;;;;;;10.55;9.85;;;;;;;;;;4190117;28;20048;-60
2023/03/19 01:37:32;;;;;;;10.85;10.13;;;;;;;;;;4191629;28;20051;-60
2023/03/19 01:39:52;;;;;;;10.45;9.70;;;;;;;;;;4188766;28;20079;-60
2023/03/19 01:42:12;;;;;;;9.65;9.20;;;;;;;;;;4189847;28;20052;-60
2023/03/19 01:44:35;;;;;;;11.48;10.63;;;;;;;;;;4191123;28;20130;-60
2023/03/19 01:46:57;;;;;;;12.37;11.00;;;;;;;;;;4190909;28;20072;-60
2023/03/19 01:49:18;;;;;;;12.45;11.55;;;;;;;;;;4189635;28;20271;-60
2023/03/19 01:51:40;;;;;;;12.38;11.55;;;;;;;;;;4188534;28;20056;-60
2023/03/19 01:54:03;;;;;;;13.25;12.02;;;;;;;;;;4190168;28;20072;-60
2023/03/19 01:56:27;;;;;;;12.40;11.48;;;;;;;;;;4190606;28;20091;-60
2023/03/19 01:58:49;;;;;;;10.95;8.68;;;;;;;;;;4190574;28;20047;-60
2023/03/19 02:01:10;;;;;;;10.70;9.80;;;;;;;;;;4187949;28;20048;-60
2023/03/19 02:03:30;;;;;;;10.27;9.65;;;;;;;;;;4190654;28;20048;-60
2023/03/19 02:05:51;;;;;;;10.13;9.52;;;;;;;;;;4188254;28;20079;-60
2023/03/19 02:08:13;;;;;;;9.93;9.48;;;;;;;;;;4190895;28;20047;-60
2023/03/19 02:10:34;;;;;;;10.93;10.17;;;;;;;;;;4190809;28;20047;-60
2023/03/19 02:12:55;;;;;;;11.13;10.07;;;;;;;;;;4191741;28;20055;-60
2023/03/19 02:15:15;;;;;;;9.85;9.13;;;;;;;;;;4188011;28;20075;-60
2023/03/19 02:17:36;;;;;;;9.75;9.25;;;;;;;;;;4188295;28;20063;-60
2023/03/19 02:20:15;;;;;;;10.10;9.60;;;;;;;;;;4191901;28;20044;-60
2023/03/19 02:22:36;;;;;;;9.80;9.27;;;;;;;;;;4195734;28;20240;-60
2023/03/19 02:25:00;;;;;;;10.65;9.73;;;;;;;;;;4192336;28;20051;-60
2023/03/19 02:27:20;;;;;;;9.85;9.25;;;;;;;;;;4192632;28;20233;-60
2023/03/19 02:29:40;;;;;;;8.82;8.02;;;;;;;;;;4194373;28;20059;-60
2023/03/19 02:32:02;;;;;;;8.98;8.43;;;;;;;;;;4194172;28;20140;-60
2023/03/19 02:34:22;;;;;;;8.43;8.02;;;;;;;;;;4190999;28;20098;-60
2023/03/19 02:36:44;;;;;;;8.68;8.25;;;;;;;;;;4191085;28;20052;-60
2023/03/19 02:39:07;;;;;;;8.98;8.45;;;;;;;;;;4191526;28;20043;-60
2023/03/19 02:41:27;;;;;;;;;;;;;;;;;;4192426;28;20047;-60
2023/03/19 02:43:49;;;;;;;10.70;9.95;;;;;;;;;;4191974;28;19924;-60
2023/03/19 02:46:12;;;;;;;11.05;8.05;;;;;;;;;;4197436;28;20103;-60
2023/03/19 02:48:33;;;;;;;8.02;7.43;;;;;;;;;;4192331;28;20047;-60
2023/03/19 02:50:54;;;;;;;8.70;8.10;;;;;;;;;;4191800;28;20048;-60
2023/03/19 02:53:15;;;;;;;10.63;9.93;;;;;;;;;;4192028;28;20044;-60
2023/03/19 02:55:35;;;;;;;9.52;9.00;;;;;;;;;;4191984;28;20052;-60
2023/03/19 02:57:56;;;;;;;10.00;9.52;;;;;;;;;;4192632;28;20048;-60
2023/03/19 03:00:17;;;;;;;10.50;9.63;;;;;;;;;;4192089;28;20064;-60
2023/03/19 03:02:37;;;;;;;9.50;9.10;;;;;;;;;;4191477;28;20090;-60
2023/03/19 03:04:58;;;;;;;10.50;9.50;;;;;;;;;;4193158;28;20109;-60
2023/03/19 03:07:18;;;;;;;11.60;10.85;;;;;;;;;;4192869;28;20068;-60
2023/03/19 03:09:38;;;;;;;9.90;9.07;;;;;;;;;;4190029;28;20059;-60
2023/03/19 03:11:58;;;;;;;9.88;9.07;;;;;;;;;;4192758;28;20079;-60
2023/03/19 03:14:19;;;;;;;10.25;9.75;;;;;;;;;;4192968;28;20071;-60
2023/03/19 03:16:39;;;;;;;10.65;9.85;;;;;;;;;;4192875;28;20052;-61
2023/03/19 03:19:01;;;;;;;9.48;8.82;;;;;;;;;;4191688;28;20048;-60
2023/03/19 03:21:21;;;;;;;9.43;8.90;;;;;;;;;;4192867;28;20103;-60
2023/03/19 03:23:41;;;;;;;10.48;9.80;;;;;;;;;;4193370;28;20067;-60
2023/03/19 03:26:02;;;;;;;11.93;10.65;;;;;;;;;;4189085;28;20051;-60
2023/03/19 03:28:23;;;;;;;13.85;12.57;;;;;;;;;;4191753;28;20079;-60
2023/03/19 03:30:43;;;;;;;12.18;11.38;;;;;;;;;;4192405;28;20377;-60
2023/03/19 03:33:03;;;;;;;12.98;12.15;;;;;;;;;;4191897;28;20075;-60
2023/03/19 03:35:24;;;;;;;10.05;8.52;;;;;;;;;;4191789;28;20051;-60
2023/03/19 03:37:45;;;;;;;10.52;9.63;;;;;;;;;;4192431;28;20079;-60
2023/03/19 03:40:08;;;;;;;8.00;7.68;;;;;;;;;;4191396;28;20113;-60
2023/03/19 03:42:28;;;;;;;9.70;8.93;;;;;;;;;;4192468;28;20044;-60
2023/03/19 03:44:48;;;;;;;8.48;8.07;;;;;;;;;;4189061;28;20223;-60
2023/03/19 03:47:08;;;;;;;9.75;8.90;;;;;;;;;;4192372;28;20060;-60
2023/03/19 03:49:29;;;;;;;11.25;10.63;;;;;;;;;;4191842;28;20048;-60
2023/03/19 03:51:49;;;;;;;9.32;8.65;;;;;;;;;;4195349;28;20052;-60
2023/03/19 03:54:09;;;;;;;8.02;7.47;;;;;;;;;;4191084;28;20112;-60
2023/03/19 03:56:30;;;;;;;8.15;7.75;;;;;;;;;;4191845;28;20044;-60
2023/03/19 03:58:50;;;;;;;9.10;8.60;;;;;;;;;;4191768;28;20052;-60
2023/03/19 04:01:15;;;;;;;8.05;7.60;;;;;;;;;;4190156;28;20416;-60
2023/03/19 04:03:35;;;;;;;7.50;7.20;;;;;;;;;;4190868;28;20035;-60
2023/03/19 04:05:56;;;;;;;7.88;7.43;;;;;;;;;;4190872;28;20099;-60
2023/03/19 04:08:16;;;;;;;8.10;7.75;;;;;;;;;;4190828;28;20074;-60
2023/03/19 04:10:39;;;;;;;10.88;9.90;;;;;;;;;;4190661;28;20043;-60
2023/03/19 04:12:59;;;;;;;10.32;9.40;;;;;;;;;;4191298;28;20280;-60
2023/03/19 04:15:19;;;;;;;10.90;10.27;;;;;;;;;;4191222;28;20056;-60
2023/03/19 04:17:39;;;;;;;9.07;8.48;;;;;;;;;;4191335;28;20044;-60
2023/03/19 04:19:59;;;;;;;10.57;9.93;;;;;;;;;;4190249;28;20082;-60
2023/03/19 04:22:19;;;;;;;9.68;9.18;;;;;;;;;;4191488;28;20052;-60
2023/03/19 04:24:40;;;;;;;8.30;7.97;;;;;;;;;;4191241;28;20304;-60
2023/03/19 04:27:00;;;;;;;11.32;10.80;;;;;;;;;;4191619;28;20270;-60
2023/03/19 04:29:21;;;;;;;12.32;11.25;;;;;;;;;;4190577;28;20336;-60
2023/03/19 04:31:41;;;;;;;11.20;10.52;;;;;;;;;;4191432;28;20113;-60
2023/03/19 04:34:01;;;;;;;11.93;11.15;;;;;;;;;;4192082;28;20324;-60
2023/03/19 04:36:21;;;;;;;10.82;10.00;;;;;;;;;;4192290;28;20112;-60
2023/03/19 04:38:42;;;;;;;10.63;9.75;;;;;;;;;;4190434;28;20052;-60
2023/03/19 04:41:03;;;;;;;10.07;9.40;;;;;;;;;;4191785;28;20067;-60
2023/03/19 04:43:24;;;;;;;12.10;10.95;;;;;;;;;;4191492;28;20259;-61
2023/03/19 04:45:44;;;;;;;11.55;10.75;;;;;;;;;;4192602;28;20044;-60
2023/03/19 04:48:05;;;;;;;8.98;8.63;;;;;;;;;;4189843;28;20090;-60
2023/03/19 04:50:26;;;;;;;9.63;8.88;;;;;;;;;;4191904;28;20099;-60
2023/03/19 04:52:46;;;;;;;9.00;8.50;;;;;;;;;;4194077;28;20063;-60
2023/03/19 04:55:07;;;;;;;10.13;9.73;;;;;;;;;;4190759;28;20059;-61
2023/03/19 04:57:27;;;;;;;11.05;10.18;;;;;;;;;;4190822;28;20087;-60
2023/03/19 04:59:47;;;;;;;10.18;9.57;;;;;;;;;;4192847;28;20067;-60
2023/03/19 05:02:08;;;;;;;10.13;9.40;;;;;;;;;;4195106;28;20047;-60
2023/03/19 05:04:28;;;;;;;10.40;9.77;;;;;;;;;;4189818;28;20044;-60
2023/03/19 05:06:49;;;;;;;10.60;9.70;;;;;;;;;;4190622;28;20052;-60
2023/03/19 05:09:09;;;;;;;10.48;9.77;;;;;;;;;;4192797;28;20139;-61
2023/03/19 05:11:30;;;;;;;8.75;8.40;;;;;;;;;;4192088;28;20117;-60
2023/03/19 05:13:50;;;;;;;9.27;8.75;;;;;;;;;;4191208;28;20116;-60
2023/03/19 05:16:10;;;;;;;8.98;8.63;;;;;;;;;;4190767;28;20303;-60
2023/03/19 05:18:30;;;;;;;10.50;10.02;;;;;;;;;;4192905;28;20228;-60
2023/03/19 05:20:50;;;;;;;10.10;9.70;;;;;;;;;;4189922;28;20052;-60
2023/03/19 05:23:11;;;;;;;9.07;8.35;;;;;;;;;;4191883;28;20245;-60
2023/03/19 05:25:31;;;;;;;9.48;8.90;;;;;;;;;;4188498;28;20098;-61
2023/03/19 05:27:52;;;;;;;9.77;9.15;;;;;;;;;;4189785;28;20051;-60
2023/03/19 05:30:13;;;;;;;9.07;8.43;;;;;;;;;;4189868;28;20048;-60
2023/03/19 05:32:33;;;;;;;9.30;8.90;;;;;;;;;;4189210;28;20087;-60
2023/03/19 05:34:53;;;;;;;9.75;8.98;;;;;;;;;;4188878;28;20040;-60
2023/03/19 05:37:14;;;;;;;9.38;8.98;;;;;;;;;;4189390;28;20386;-60
2023/03/19 05:39:35;;;;;;;8.55;8.02;;;;;;;;;;4189410;28;20044;-60
2023/03/19 05:41:55;;;;;;;9.32;8.77;;;;;;;;;;4189321;28;20248;-60
2023/03/19 05:44:16;;;;;;;8.50;7.75;;;;;;;;;;4190871;28;20052;-61
2023/03/19 05:46:36;;;;;;;6.57;6.38;;;;;;;;;;4189516;28;20236;-60
2023/03/19 05:48:56;;;;;;;8.77;8.35;;;;;;;;;;4189660;28;20123;-60
2023/03/19 05:51:17;;;;;;;8.40;8.00;;;;;;;;;;4188359;28;20071;-60
2023/03/19 05:53:37;;;;;;;8.98;8.43;;;;;;;;;;4192215;28;20063;-60
2023/03/19 05:55:57;;;;;;;9.20;8.73;;;;;;;;;;4192808;28;20390;-60
2023/03/19 05:58:17;;;;;;;8.68;8.13;;;;;;;;;;4192857;28;20421;-60
2023/03/19 06:00:38;;;;;;;9.82;9.43;;;;;;;;;;4191350;28;20134;-60
2023/03/19 06:02:58;;;;;;;9.25;8.73;;;;;;;;;;4194626;28;20495;-60
2023/03/19 06:05:18;;;;;;;9.27;8.68;;;;;;;;;;4190801;28;20464;-60
2023/03/19 06:07:38;;;;;;;9.05;8.65;;;;;;;;;;4194286;28;20048;-60
2023/03/19 06:09:58;;;;;;;10.25;9.57;;;;;;;;;;4192976;28;20269;-60
2023/03/19 06:12:19;;;;;;;9.55;8.13;;;;;;;;;;4191771;28;20290;-60
2023/03/19 06:14:39;;;;;;;9.70;9.07;;;;;;;;;;4193377;28;20116;-60
2023/03/19 06:16:59;;;;;;;9.05;8.43;;;;;;;;;;4195458;28;20101;-60
2023/03/19 06:19:20;;;;;;;9.05;8.63;;;;;;;;;;4193020;28;20117;-60
2023/03/19 06:21:39;;;;;;;9.43;8.57;;;;;;;;;;4192817;28;20075;-60
2023/03/19 06:23:59;;;;;;;9.70;8.55;;;;;;;;;;4193368;28;20091;-61
2023/03/19 06:26:19;;;;;;;7.88;7.68;;;;;;;;;;4193614;28;20104;-60
2023/03/19 06:28:39;;;;;;;8.38;7.80;;;;;;;;;;4191218;28;20063;-60
2023/03/19 06:30:59;;;;;;;9.35;8.85;;;;;;;;;;4192357;28;20108;-60
2023/03/19 06:33:20;;;;;;;8.85;8.40;;;;;;;;;;4194504;28;20232;-61
2023/03/19 06:35:40;;;;;;;7.53;7.15;;;;;;;;;;4193118;28;20060;-60
2023/03/19 06:38:00;;;;;;;7.15;6.88;;;;;;;;;;4191710;28;20091;-60
2023/03/19 06:40:20;;;;;;;8.63;7.82;;;;;;;;;;4192846;28;20240;-60
2023/03/19 06:42:44;;;;;;;7.55;6.80;;;;;;;;;;4193170;28;20935;-60
2023/03/19 06:45:05;;;;;;;;;;;;;;;;;;4191105;28;20056;-60
2023/03/19 06:47:25;;;;;;;7.35;7.05;;;;;;;;;;4192637;28;19923;-60
2023/03/19 06:49:46;;;;;;;6.65;6.35;;;;;;;;;;4192183;28;20247;-60
2023/03/19 06:52:06;;;;;;;6.90;6.50;;;;;;;;;;4191064;28;20378;-60
2023/03/19 06:54:26;;;;;;;6.38;6.05;;;;;;;;;;4191433;28;20411;-60
2023/03/19 06:56:47;;;;;;;6.88;6.47;;;;;;;;;;4190079;28;20052;-60
2023/03/19 06:59:11;;;;;;;11.07;10.07;;;;;;;;;;4191417;28;20037;-60
2023/03/19 07:01:32;;;;;;;10.93;10.07;;;;;;;;;;4191942;28;20359;-60
2023/03/19 07:03:53;;;;;;;10.32;9.50;;;;;;;;;;4184181;28;20039;-60
2023/03/19 07:06:13;;;;;;;9.40;9.00;;;;;;;;;;4190619;28;20362;-60
2023/03/19 07:08:33;;;;;;;9.70;8.82;;;;;;;;;;4192668;28;20068;-60
2023/03/19 07:10:53;;;;;;;10.35;9.75;;;;;;;;;;4191296;28;20279;-60
2023/03/19 07:13:13;;;;;;;12.32;11.43;;;;;;;;;;4190431;28;20420;-59
2023/03/19 07:15:35;;;;;;;32.50;29.40;;;;;;;;;;4190422;28;20047;-59
2023/03/19 07:17:56;;;;;;;13.27;12.18;;;;;;;;;;4193050;28;20048;-59
2023/03/19 07:20:16;;;;;;;12.45;11.55;;;;;;;;;;4191286;28;20094;-59
2023/03/19 07:22:36;;;;;;;15.43;14.52;;;;;;;;;;4189130;28;20603;-59
2023/03/19 07:24:57;;;;;;;12.80;11.98;;;;;;;;;;4193693;28;20055;-59
2023/03/19 07:27:17;;;;;;;13.68;12.57;;;;;;;;;;4193973;28;20048;-59
2023/03/19 07:29:37;;;;;;;11.38;10.57;;;;;;;;;;4191045;28;20075;-59
2023/03/19 07:31:57;;;;;;;10.60;10.02;;;;;;;;;;4191545;28;20056;-59
2023/03/19 07:34:17;;;;;;;9.82;9.20;;;;;;;;;;4193682;28;20055;-59
2023/03/19 07:36:37;;;;;;;12.23;11.05;;;;;;;;;;4190745;28;20122;-59
2023/03/19 07:38:57;;;;;;;14.30;13.10;;;;;;;;;;4189995;28;20355;-59
2023/03/19 07:41:17;;;;;;;13.40;12.05;;;;;;;;;;4190835;28;20378;-59
2023/03/19 07:43:38;;;;;;;12.93;11.93;;;;;;;;;;4192183;28;20229;-59
2023/03/19 07:45:58;;;;;;;14.32;13.50;;;;;;;;;;4193543;28;20094;-59
2023/03/19 07:48:18;;;;;;;14.50;13.18;;;;;;;;;;4189520;28;20203;-59
2023/03/19 07:50:38;;;;;;;14.57;12.50;;;;;;;;;;4191443;28;20076;-59
2023/03/19 07:52:59;;;;;;;12.82;11.93;;;;;;;;;;4191846;28;20095;-59
2023/03/19 07:55:20;;;;;;;14.15;13.18;;;;;;;;;;4193816;28;20083;-59
2023/03/19 07:57:40;;;;;;;13.75;12.73;;;;;;;;;;4188624;28;20320;-59
2023/03/19 08:00:00;;;;;;;26.98;22.58;;;;;;;;;;4191763;28;20099;-59
2023/03/19 08:02:20;;;;;;;16.98;15.48;;;;;;;;;;4193310;28;20543;-59
2023/03/19 08:04:43;;;;;;;13.50;12.38;;;;;;;;;;4194795;28;20090;-59
2023/03/19 08:07:03;;;;;;;15.50;14.02;;;;;;;;;;4188745;28;20052;-60
2023/03/19 08:09:23;;;;;;;12.77;11.80;;;;;;;;;;4192972;28;20051;-59
2023/03/19 08:11:43;;;;;;;11.52;10.73;;;;;;;;;;4193957;28;20294;-59
2023/03/19 08:14:03;;;;;;;11.57;10.68;;;;;;;;;;4191107;28;20076;-59
2023/03/19 08:16:24;;;;;;;11.65;10.82;;;;;;;;;;4190111;28;20048;-59
2023/03/19 08:18:44;;;;;;;12.88;11.75;;;;;;;;;;4190305;28;20047;-59
2023/03/19 08:21:05;;;;;;;12.63;11.73;;;;;;;;;;4188260;28;20056;-59
2023/03/19 08:23:25;;;;;;;11.32;10.15;;;;;;;;;;4190385;28;20039;-59
2023/03/19 08:25:46;;;;;;;11.65;10.55;;;;;;;;;;4190896;28;20056;-59
2023/03/19 08:28:08;;;;;;;13.13;12.00;;;;;;;;;;4190868;28;20048;-59
2023/03/19 08:30:28;;;;;;;13.40;12.38;;;;;;;;;;4191143;28;20135;-59
2023/03/19 08:32:49;;;;;;;13.43;12.13;;;;;;;;;;4189887;28;20113;-60
2023/03/19 08:35:10;;;;;;;11.68;10.88;;;;;;;;;;4191352;28;20075;-60
2023/03/19 08:37:30;;;;;;;12.68;11.45;;;;;;;;;;4190597;28;20320;-59
2023/03/19 08:39:51;;;;;;;12.65;11.50;;;;;;;;;;4191502;28;20244;-59
2023/03/19 08:42:11;;;;;;;12.80;11.75;;;;;;;;;;4191070;28;20374;-59
2023/03/19 08:44:31;;;;;;;11.10;10.30;;;;;;;;;;4190851;28;20080;-59
2023/03/19 08:46:52;;;;;;;9.18;8.77;;;;;;;;;;4191707;28;20291;-60
2023/03/19 08:49:12;;;;;;;9.80;8.98;;;;;;;;;;4190298;28;20067;-59
2023/03/19 08:51:32;;;;;;;9.25;8.13;;;;;;;;;;4189444;28;20075;-60
2023/03/19 08:53:52;;;;;;;10.52;9.68;;;;;;;;;;4191271;28;20134;-59
2023/03/19 08:56:13;;;;;;;8.23;7.47;;;;;;;;;;4191679;28;20079;-59
2023/03/19 08:58:33;;;;;;;8.13;7.63;;;;;;;;;;4188631;28;20044;-60
2023/03/19 09:01:01;;;;;;;7.75;7.13;;;;;;;;;;4191214;28;20078;-59
2023/03/19 09:03:21;;;;;;;12.98;11.85;;;;;;;;;;4192856;28;20076;-60
2023/03/19 09:05:41;;;;;;;14.45;13.00;;;;;;;;;;4192640;28;20056;-60
2023/03/19 09:08:01;;;;;;;9.32;8.50;;;;;;;;;;4188622;28;20052;-59
2023/03/19 09:10:22;;;;;;;6.72;6.30;;;;;;;;;;4190252;28;20051;-59
2023/03/19 09:12:42;;;;;;;8.02;7.57;;;;;;;;;;4192188;28;20104;-59
2023/03/19 09:15:03;;;;;;;7.72;7.10;;;;;;;;;;4190561;28;20087;-60
2023/03/19 09:17:23;;;;;;;7.30;6.68;;;;;;;;;;4190320;28;20075;-60
2023/03/19 09:19:43;;;;;;;6.85;6.28;;;;;;;;;;4191041;28;20048;-59
2023/03/19 09:22:03;;;;;;;5.85;5.55;;;;;;;;;;4190199;28;20052;-59
2023/03/19 09:24:25;;;;;;;6.85;6.30;;;;;;;;;;4190800;28;20043;-59
2023/03/19 09:26:45;;;;;;;6.85;6.45;;;;;;;;;;4190356;28;20056;-59
2023/03/19 09:29:06;;;;;;;6.40;5.90;;;;;;;;;;4194407;28;20044;-60
2023/03/19 09:31:26;;;;;;;9.75;5.88;;;;;;;;;;4195527;28;20059;-60
2023/03/19 09:33:49;;;;;;;;;;;;;;;;;;4196563;28;20295;-60
2023/03/19 09:36:09;;;;;;;10.02;9.15;;;;;;;;;;4196142;28;19924;-59
2023/03/19 09:38:30;;;;;;;6.85;6.55;;;;;;;;;;4195817;28;20232;-59
2023/03/19 09:40:59;;;;;;;7.25;6.72;;;;;;;;;;4195481;28;20048;-59
2023/03/19 09:43:38;;;;;;;6.78;6.32;;;;;;;;;;4194054;28;20399;-60
2023/03/19 09:45:59;;;;;;;6.97;6.50;;;;;;;;;;4193808;28;20178;-59
2023/03/19 09:48:27;;;;;;;7.47;7.03;;;;;;;;;;4194478;28;20083;-60
2023/03/19 09:50:49;;;;;;;6.35;6.05;;;;;;;;;;4194283;28;20124;-60
2023/03/19 09:53:12;;;;;;;7.15;6.75;;;;;;;;;;4193521;28;20101;-60
2023/03/19 09:55:32;;;;;;;7.72;7.15;;;;;;;;;;4195723;28;20075;-59
2023/03/19 09:57:54;;;;;;;5.53;5.25;;;;;;;;;;4195737;28;20043;-60
2023/03/19 10:00:28;;;;;;;6.85;6.55;;;;;;;;;;4194785;28;20090;-59
2023/03/19 10:02:52;;;;;;;5.97;5.63;;;;;;;;;;4195050;28;20060;-60
2023/03/19 10:05:19;;;;;;;6.40;5.88;;;;;;;;;;4196123;28;20043;-59
2023/03/19 10:07:39;;;;;;;5.32;5.13;;;;;;;;;;4195915;28;20067;-59
2023/03/19 10:10:15;;;;;;;6.88;6.47;;;;;;;;;;4196290;28;20417;-59
2023/03/19 10:12:58;;;;;;;6.93;6.28;;;;;;;;;;4194643;28;20120;-59
2023/03/19 10:15:26;;;;;;;6.80;6.38;;;;;;;;;;4196812;28;20048;-59
2023/03/19 10:17:46;;;;;;;6.35;6.05;;;;;;;;;;4195576;28;20063;-59
2023/03/19 10:20:25;;;;;;;6.68;6.15;;;;;;;;;;4197749;28;20075;-59
2023/03/19 10:22:49;;;;;;;7.80;6.35;;;;;;;;;;4195424;28;20051;-60
2023/03/19 10:25:15;;;;;;;6.80;6.22;;;;;;;;;;4194303;28;20043;-60
2023/03/19 10:27:37;;;;;;;6.60;6.15;;;;;;;;;;4196174;28;20335;-60
2023/03/19 10:29:57;;;;;;;6.15;5.55;;;;;;;;;;4196179;28;20079;-60
2023/03/19 10:32:19;;;;;;;12.23;5.90;;;;;;;;;;4195812;28;20116;-59
2023/03/19 10:34:43;;;;;;;6.37;5.90;;;;;;;;;;4195100;28;20044;-60
2023/03/19 10:37:05;;;;;;;6.57;6.15;;;;;;;;;;4196089;28;20051;-60
2023/03/19 10:39:26;;;;;;;6.32;5.82;;;;;;;;;;4191889;28;20059;-59
2023/03/19 10:41:52;;;;;;;5.68;5.30;;;;;;;;;;4193017;28;20079;-60
2023/03/19 10:44:32;;;;;;;6.80;6.40;;;;;;;;;;4192629;28;20119;-59
2023/03/19 10:46:52;;;;;;;6.80;6.30;;;;;;;;;;4192363;28;20051;-60
2023/03/19 10:49:13;;;;;;;7.63;7.00;;;;;;;;;;4192323;28;20375;-59
2023/03/19 10:51:37;;;;;;;10.10;9.27;;;;;;;;;;4192149;28;20056;-60
2023/03/19 10:54:00;;;;;;;6.93;6.38;;;;;;;;;;4192502;28;20354;-59
2023/03/19 10:56:21;;;;;;;7.55;6.95;;;;;;;;;;4193676;28;20048;-60
2023/03/19 10:58:55;;;;;;;7.90;7.40;;;;;;;;;;4191525;28;20466;-59
2023/03/19 11:01:15;;;;;;;11.32;8.38;;;;;;;;;;4190775;28;20040;-60
2023/03/19 11:03:37;;;;;;;5.63;5.22;;;;;;;;;;4193194;28;20536;-59
2023/03/19 11:06:17;;;;;;;9.38;7.50;;;;;;;;;;4192398;28;20267;-59
2023/03/19 11:08:37;;;;;;;8.85;8.30;;;;;;;;;;4188897;28;20259;-59
2023/03/19 11:10:57;;;;;;;10.13;9.27;;;;;;;;;;4191351;28;20058;-60
2023/03/19 11:13:27;;;;;;;7.15;6.63;;;;;;;;;;4190969;28;20079;-60
2023/03/19 11:15:48;;;;;;;7.53;7.00;;;;;;;;;;4190888;28;20044;-60
2023/03/19 11:18:15;;;;;;;6.63;6.43;;;;;;;;;;4189921;28;20155;-60
2023/03/19 11:20:37;;;;;;;7.22;6.82;;;;;;;;;;4192535;28;20086;-60
2023/03/19 11:23:01;;;;;;;7.32;6.82;;;;;;;;;;4191876;28;20076;-60
2023/03/19 11:25:36;;;;;;;11.18;6.82;;;;;;;;;;4190924;28;20233;-60
2023/03/19 11:28:00;;;;;;;7.00;5.68;;;;;;;;;;4190312;28;20087;-59
2023/03/19 11:30:20;;;;;;;6.50;6.20;;;;;;;;;;4192820;28;20077;-60
2023/03/19 11:33:13;;;;;;;5.57;5.18;;;;;;;;;;4191727;28;20056;-60
2023/03/19 11:35:39;;;;;;;11.52;8.20;;;;;;;;;;4122797;28;20055;-59
2023/03/19 11:38:01;;;;;;;6.93;6.38;;;;;;;;;;4123599;28;20167;-59
2023/03/19 11:40:40;;;;;;;7.10;6.65;;;;;;;;;;4123648;28;20077;-59
2023/03/19 11:43:09;;;;;;;7.03;6.18;;;;;;;;;;4122907;28;20057;-59
2023/03/19 11:45:36;;;;;;;7.25;6.60;;;;;;;;;;4123707;28;20069;-60
2023/03/19 11:48:19;;;;;;;7.75;7.38;;;;;;;;;;4123323;28;20041;-59
2023/03/19 11:50:40;;;;;;;9.00;7.85;;;;;;;;;;4123641;28;20440;-59
2023/03/19 11:53:12;;;;;;;8.07;7.47;;;;;;;;;;4123260;28;20054;-60
2023/03/19 11:55:39;;;;;;;7.15;6.50;;;;;;;;;;4123581;28;20053;-60
2023/03/19 11:58:05;;;;;;;6.20;5.72;;;;;;;;;;4123496;28;20050;-60
2023/03/19 12:00:30;;;;;;;7.35;6.60;;;;;;;;;;4123240;28;20273;-61
2023/03/19 12:03:08;;;;;;;8.90;7.35;;;;;;;;;;4123220;28;20106;-59
2023/03/19 12:05:33;;;;;;;9.18;6.75;;;;;;;;;;4123403;28;20053;-59
2023/03/19 12:07:53;;;;;;;14.63;10.43;;;;;;;;;;4123420;28;20046;-59
2023/03/19 12:10:20;;;;;;;7.18;6.63;;;;;;;;;;4127723;28;20101;-59
2023/03/19 12:12:49;;;;;;;7.28;6.35;;;;;;;;;;4193075;28;20095;-59
2023/03/19 12:15:09;;;;;;;8.90;5.35;;;;;;;;;;4193942;28;20144;-59
2023/03/19 12:17:45;;;;;;;7.60;5.35;;;;;;;;;;4191061;28;20048;-59
2023/03/19 12:20:14;;;;;;;10.50;6.55;;;;;;;;;;4191523;28;20055;-60
2023/03/19 12:22:53;;;;;;;6.68;6.38;;;;;;;;;;4192660;28;20135;-59
2023/03/19 12:25:16;;;;;;;8.02;6.13;;;;;;;;;;4193335;28;20080;-59
2023/03/19 12:27:42;;;;;;;8.52;6.95;;;;;;;;;;4189725;28;20052;-60
2023/03/19 12:30:24;;;;;;;6.95;6.05;;;;;;;;;;4192381;28;20079;-59
2023/03/19 12:33:06;;;;;;;8.30;7.15;;;;;;;;;;4191187;28;20036;-60
2023/03/19 12:35:48;;;;;;;9.15;7.85;;;;;;;;;;4188297;28;20370;-60
2023/03/19 12:38:11;;;;;;;9.48;7.13;;;;;;;;;;4190434;28;20048;-60
2023/03/19 12:40:32;;;;;;;;;;;;;;;;;;4190615;28;20116;-59
2023/03/19 12:42:53;;;;;;;12.32;11.18;;;;;;;;;;4189293;28;19976;-60
2023/03/19 12:45:26;;;;;;;10.43;7.50;;;;;;;;;;4190371;28;20039;-60
2023/03/19 12:47:46;;;;;;;;;;;;;;;;;;4189933;28;20048;-60
2023/03/19 12:50:09;;;;;;;8.23;5.57;;;;;;;;;;4191226;28;19957;-60
2023/03/19 12:52:43;;;;;;;10.20;7.68;;;;;;;;;;4190446;28;20059;-59
2023/03/19 12:55:19;;;;;;;7.60;5.40;;;;;;;;;;4187658;28;20044;-60
2023/03/19 12:58:01;;;;;;;6.68;6.32;;;;;;;;;;4191302;28;20079;-60
2023/03/19 13:00:21;;;;;;;11.77;7.43;;;;;;;;;;4191965;28;20083;-59
2023/03/19 13:02:52;;;;;;;8.98;5.80;;;;;;;;;;4188082;28;20378;-60
2023/03/19 13:05:26;;;;;;;9.52;6.30;;;;;;;;;;4191512;28;20244;-59
2023/03/19 13:07:55;;;;;;;4.60;4.30;;;;;;;;;;4192479;28;20087;-60
2023/03/19 13:10:20;;;;;;;5.60;4.90;;;;;;;;;;4190339;28;20052;-59
2023/03/19 13:12:41;;;;;;;5.47;4.97;;;;;;;;;;4189483;28;20048;-59
2023/03/19 13:15:09;;;;;;;5.65;4.32;;;;;;;;;;4192099;28;20051;-60
2023/03/19 13:17:40;;;;;;;5.05;4.63;;;;;;;;;;4193059;28;20448;-60
2023/03/19 13:20:05;;;;;;;6.95;4.93;;;;;;;;;;4189618;28;20044;-60
2023/03/19 13:22:32;;;;;;;6.53;4.90;;;;;;;;;;4190666;28;20089;-60
2023/03/19 13:24:54;;;;;;;5.68;4.82;;;;;;;;;;4191789;28;20098;-59
2023/03/19 13:27:19;;;;;;;7.93;5.93;;;;;;;;;;4190113;28;20075;-60
2023/03/19 13:30:02;;;;;;;7.32;6.65;;;;;;;;;;4190809;28;20102;-60
2023/03/19 13:32:24;;;;;;;12.13;6.97;;;;;;;;;;4190200;28;20083;-59
2023/03/19 13:34:44;;;;;;;7.72;7.05;;;;;;;;;;4190430;28;20102;-59
2023/03/19 13:37:10;;;;;;;6.88;6.22;;;;;;;;;;4189401;28;20047;-60
2023/03/19 13:39:32;;;;;;;5.88;5.35;;;;;;;;;;4190279;28;20075;-60
2023/03/19 13:41:57;;;;;;;12.18;8.20;;;;;;;;;;4190294;28;20079;-59
2023/03/19 13:44:32;;;;;;;15.38;11.82;;;;;;;;;;4192314;28;20048;-60
2023/03/19 13:46:52;;;;;;;6.13;5.63;;;;;;;;;;4190345;28;20048;-59
2023/03/19 13:49:13;;;;;;;8.43;5.85;;;;;;;;;;4189349;28;20392;-60
2023/03/19 13:51:34;;;;;;;5.03;4.05;;;;;;;;;;4191491;28;20078;-60
2023/03/19 13:53:55;;;;;;;5.18;4.75;;;;;;;;;;4191562;28;20044;-60
2023/03/19 13:56:16;;;;;;;5.60;5.20;;;;;;;;;;4189902;28;20461;-59
2023/03/19 13:58:51;;;;;;;11.93;8.40;;;;;;;;;;4189006;28;20044;-60
2023/03/19 14:01:32;;;;;;;12.20;10.93;;;;;;;;;;4188882;28;20040;-60
2023/03/19 14:03:53;;;;;;;5.63;5.15;;;;;;;;;;4189243;28;20087;-60
2023/03/19 14:06:37;;;;;;;10.07;6.10;;;;;;;;;;4189390;28;20091;-60
2023/03/19 14:08:57;;;;;;;6.32;5.80;;;;;;;;;;4189376;28;20048;-59